Time;durP1;ratioP1;P1;durP2;ratioP2;P2;SDS_P1;SDS_P2;PMS_P1;PMS_P2;Temp;Humidity;BMP_temperature;BMP_pressure;BME280_temperature;BME280_humidity;BME280_pressure;Samples;Min_cycle;Max_cycle;Signal;HPM_P1;HPM_P2
2023/11/03 00:01:54;;;;;;;3.10;2.60;;;;;;;;;;5043668;28;20418;-80
2023/11/03 00:04:20;;;;;;;3.40;3.10;;;;;;;;;;5044023;28;20414;-80
2023/11/03 00:06:46;;;;;;;2.15;1.80;;;;;;;;;;5042009;28;20395;-80
2023/11/03 00:09:16;;;;;;;2.00;1.80;;;;;;;;;;5038358;28;20898;-80
2023/11/03 00:11:48;;;;;;;1.90;1.70;;;;;;;;;;5037309;28;20405;-80
2023/11/03 00:14:16;;;;;;;1.73;1.40;;;;;;;;;;5043325;28;20462;-80
2023/11/03 00:16:45;;;;;;;1.50;1.40;;;;;;;;;;5043824;28;20478;-80
2023/11/03 00:19:13;;;;;;;1.75;1.50;;;;;;;;;;5043429;28;20394;-80
2023/11/03 00:21:39;;;;;;;2.28;2.08;;;;;;;;;;5044898;28;20390;-80
2023/11/03 00:24:06;;;;;;;1.93;1.73;;;;;;;;;;5035302;28;20477;-80
2023/11/03 00:26:33;;;;;;;2.30;1.90;;;;;;;;;;5044309;28;20398;-80
2023/11/03 00:28:59;;;;;;;2.10;1.90;;;;;;;;;;5043513;28;20419;-80
2023/11/03 00:31:25;;;;;;;1.38;1.00;;;;;;;;;;5044140;28;20432;-80
2023/11/03 00:33:51;;;;;;;1.67;1.40;;;;;;;;;;5043617;28;20390;-80
2023/11/03 00:36:18;;;;;;;1.90;1.60;;;;;;;;;;5043231;28;20469;-80
2023/11/03 00:38:44;;;;;;;2.13;1.73;;;;;;;;;;5042992;28;20379;-80
2023/11/03 00:41:14;;;;;;;2.67;1.70;;;;;;;;;;5043840;28;20390;-80
2023/11/03 00:43:40;;;;;;;2.00;1.45;;;;;;;;;;5043159;28;20521;-80
2023/11/03 00:46:07;;;;;;;2.10;1.55;;;;;;;;;;5042615;28;20386;-80
2023/11/03 00:48:33;;;;;;;1.73;1.48;;;;;;;;;;5042765;28;20442;-80
2023/11/03 00:50:59;;;;;;;1.55;1.45;;;;;;;;;;5043222;28;20383;-80
2023/11/03 00:53:26;;;;;;;2.47;1.55;;;;;;;;;;5043096;28;20391;-80
2023/11/03 00:55:52;;;;;;;1.30;1.20;;;;;;;;;;5042982;28;20383;-80
2023/11/03 00:58:19;;;;;;;2.00;1.40;;;;;;;;;;5043304;28;20391;-80
2023/11/03 01:00:46;;;;;;;2.28;1.30;;;;;;;;;;5043891;28;20379;-80
2023/11/03 01:03:14;;;;;;;1.87;1.33;;;;;;;;;;5042844;28;20409;-80
2023/11/03 01:05:40;;;;;;;3.70;1.40;;;;;;;;;;5043102;28;20382;-80
2023/11/03 01:08:06;;;;;;;1.80;1.50;;;;;;;;;;5043084;28;20880;-80
2023/11/03 01:10:32;;;;;;;2.20;1.42;;;;;;;;;;5042416;28;20394;-80
2023/11/03 01:12:59;;;;;;;1.50;1.40;;;;;;;;;;5039511;28;20379;-80
2023/11/03 01:15:25;;;;;;;1.35;1.25;;;;;;;;;;5042762;28;20397;-80
2023/11/03 01:17:51;;;;;;;1.52;1.42;;;;;;;;;;5042926;28;20457;-80
2023/11/03 01:20:27;;;;;;;1.70;1.50;;;;;;;;;;5043391;28;20407;-80
2023/11/03 01:22:54;;;;;;;1.52;1.38;;;;;;;;;;5042633;28;20383;-80
2023/11/03 01:25:23;;;;;;;3.72;1.92;;;;;;;;;;5043028;28;20394;-80
2023/11/03 01:27:50;;;;;;;2.00;1.90;;;;;;;;;;5043130;28;20426;-80
2023/11/03 01:30:20;;;;;;;3.80;1.70;;;;;;;;;;5040571;28;20729;-80
2023/11/03 01:32:46;;;;;;;2.80;1.90;;;;;;;;;;5038826;28;20387;-80
2023/11/03 01:35:12;;;;;;;2.10;1.90;;;;;;;;;;5040021;28;20395;-80
2023/11/03 01:37:39;;;;;;;4.70;2.10;;;;;;;;;;5040147;28;20384;-80
2023/11/03 01:40:09;;;;;;;1.70;1.60;;;;;;;;;;5040142;28;20394;-80
2023/11/03 01:42:35;;;;;;;1.85;1.55;;;;;;;;;;5039758;28;20383;-80
2023/11/03 01:45:01;;;;;;;3.03;1.67;;;;;;;;;;5041432;28;20394;-80
2023/11/03 01:47:28;;;;;;;2.13;1.60;;;;;;;;;;5040998;28;20421;-80
2023/11/03 01:49:54;;;;;;;2.40;1.53;;;;;;;;;;5040193;28;20391;-80
2023/11/03 01:52:21;;;;;;;1.70;1.50;;;;;;;;;;5031129;28;20397;-80
2023/11/03 01:54:47;;;;;;;2.85;1.70;;;;;;;;;;5040671;28;20398;-80
2023/11/03 01:57:13;;;;;;;2.25;2.00;;;;;;;;;;5040629;28;20417;-80
2023/11/03 01:59:39;;;;;;;2.20;2.00;;;;;;;;;;5040702;28;20380;-80
2023/11/03 02:02:06;;;;;;;2.23;2.03;;;;;;;;;;5040844;28;20410;-80
2023/11/03 02:04:32;;;;;;;2.50;2.30;;;;;;;;;;5040745;28;20391;-80
2023/11/03 02:06:58;;;;;;;2.33;2.13;;;;;;;;;;5040635;28;20421;-80
2023/11/03 02:09:26;;;;;;;2.30;2.10;;;;;;;;;;5041165;28;20534;-80
2023/11/03 02:11:55;;;;;;;2.55;2.35;;;;;;;;;;5040663;28;20413;-80
2023/11/03 02:14:22;;;;;;;2.30;2.10;;;;;;;;;;5040066;28;20410;-80
2023/11/03 02:16:48;;;;;;;2.53;2.33;;;;;;;;;;5040077;28;20379;-80
2023/11/03 02:19:14;;;;;;;2.80;2.60;;;;;;;;;;5040822;28;20388;-80
2023/11/03 02:21:42;;;;;;;4.18;3.88;;;;;;;;;;5043269;28;20863;-80
2023/11/03 02:24:08;;;;;;;4.20;3.90;;;;;;;;;;5036060;28;20442;-80
2023/11/03 02:26:34;;;;;;;3.73;3.43;;;;;;;;;;5044462;28;20383;-80
2023/11/03 02:29:01;;;;;;;3.80;3.50;;;;;;;;;;5042190;28;20414;-80
2023/11/03 02:31:27;;;;;;;4.32;4.03;;;;;;;;;;5044935;28;20456;-80
2023/11/03 02:33:53;;;;;;;4.10;3.80;;;;;;;;;;5045260;28;20855;-80
2023/11/03 02:36:20;;;;;;;4.43;4.07;;;;;;;;;;5044940;28;20853;-80
2023/11/03 02:38:46;;;;;;;5.05;4.60;;;;;;;;;;5045330;28;20460;-80
2023/11/03 02:41:12;;;;;;;4.50;3.58;;;;;;;;;;5045365;28;20978;-80
2023/11/03 02:43:38;;;;;;;3.88;3.58;;;;;;;;;;5045402;28;20479;-80
2023/11/03 02:46:05;;;;;;;3.70;3.40;;;;;;;;;;5045353;28;20383;-80
2023/11/03 02:48:31;;;;;;;3.83;3.53;;;;;;;;;;5045573;28;20415;-80
2023/11/03 02:50:59;;;;;;;4.03;3.72;;;;;;;;;;5045947;28;20452;-80
2023/11/03 02:53:25;;;;;;;4.15;3.60;;;;;;;;;;5041336;28;20399;-80
2023/11/03 02:55:51;;;;;;;4.28;3.88;;;;;;;;;;5043920;28;20402;-80
2023/11/03 02:58:17;;;;;;;3.83;3.53;;;;;;;;;;5039038;28;20422;-80
2023/11/03 03:00:46;;;;;;;3.92;3.63;;;;;;;;;;5035231;28;20392;-80
2023/11/03 03:03:12;;;;;;;4.13;3.83;;;;;;;;;;5037851;28;20398;-80
2023/11/03 03:05:38;;;;;;;4.10;3.70;;;;;;;;;;5043668;28;20469;-80
2023/11/03 03:08:04;;;;;;;3.60;3.30;;;;;;;;;;5044529;28;20418;-80
2023/11/03 03:10:30;;;;;;;3.70;3.40;;;;;;;;;;5044870;28;20398;-80
2023/11/03 03:12:57;;;;;;;4.30;3.42;;;;;;;;;;5044588;28;20473;-80
2023/11/03 03:15:23;;;;;;;3.35;3.00;;;;;;;;;;5044245;28;20387;-80
2023/11/03 03:17:49;;;;;;;3.42;3.13;;;;;;;;;;5030900;28;20389;-80
2023/11/03 03:20:16;;;;;;;4.10;3.80;;;;;;;;;;5030173;28;20384;-80
2023/11/03 03:22:41;;;;;;;4.20;3.90;;;;;;;;;;5033305;28;20425;-80
2023/11/03 03:25:08;;;;;;;4.30;3.80;;;;;;;;;;5044512;28;20470;-80
2023/11/03 03:27:34;;;;;;;3.83;3.53;;;;;;;;;;5044622;28;20379;-80
2023/11/03 03:30:00;;;;;;;4.03;3.67;;;;;;;;;;5044554;28;20391;-80
2023/11/03 03:32:26;;;;;;;3.38;3.17;;;;;;;;;;5025663;28;20395;-80
2023/11/03 03:34:52;;;;;;;3.60;3.30;;;;;;;;;;5041590;28;20424;-80
2023/11/03 03:37:18;;;;;;;3.30;3.10;;;;;;;;;;5042112;28;20380;-80
2023/11/03 03:39:44;;;;;;;3.35;3.10;;;;;;;;;;5044303;28;20406;-80
2023/11/03 03:42:10;;;;;;;8.68;3.70;;;;;;;;;;5044358;28;20912;-80
2023/11/03 03:44:40;;;;;;;3.30;3.10;;;;;;;;;;5044453;28;20382;-80
2023/11/03 03:47:07;;;;;;;3.90;3.45;;;;;;;;;;5044583;28;20391;-80
2023/11/03 03:49:33;;;;;;;5.18;4.88;;;;;;;;;;5031377;28;20425;-80
2023/11/03 03:51:59;;;;;;;5.20;4.85;;;;;;;;;;5043757;28;20391;-80
2023/11/03 03:54:25;;;;;;;6.38;5.80;;;;;;;;;;5044301;28;20395;-80
2023/11/03 03:56:51;;;;;;;6.35;5.75;;;;;;;;;;5044371;28;20772;-80
2023/11/03 03:59:17;;;;;;;6.00;5.45;;;;;;;;;;5043999;28;20410;-80
2023/11/03 04:01:43;;;;;;;5.57;5.07;;;;;;;;;;5044256;28;20411;-80
2023/11/03 04:04:09;;;;;;;5.25;4.82;;;;;;;;;;5044181;28;20399;-80
2023/11/03 04:06:36;;;;;;;4.65;4.10;;;;;;;;;;5043211;28;20418;-80
2023/11/03 04:09:02;;;;;;;4.70;4.22;;;;;;;;;;5043722;28;20438;-80
2023/11/03 04:11:28;;;;;;;5.40;4.78;;;;;;;;;;5043096;28;20852;-80
2023/11/03 04:13:55;;;;;;;4.70;4.30;;;;;;;;;;5043058;28;20391;-80
2023/11/03 04:16:21;;;;;;;4.85;4.40;;;;;;;;;;5044173;28;20390;-80
2023/11/03 04:18:47;;;;;;;5.03;4.53;;;;;;;;;;5044487;28;20383;-80
2023/11/03 04:21:13;;;;;;;4.60;4.10;;;;;;;;;;5044534;28;20407;-80
2023/11/03 04:23:39;;;;;;;5.82;3.90;;;;;;;;;;5037366;28;20380;-80
2023/11/03 04:26:05;;;;;;;4.15;3.60;;;;;;;;;;5043894;28;20380;-80
2023/11/03 04:28:33;;;;;;;4.20;3.60;;;;;;;;;;5042802;28;20426;-80
2023/11/03 04:30:59;;;;;;;3.72;3.22;;;;;;;;;;5042801;28;20405;-80
2023/11/03 04:33:25;;;;;;;3.92;3.53;;;;;;;;;;5043467;28;20788;-80
2023/11/03 04:35:51;;;;;;;3.63;3.33;;;;;;;;;;5041534;28;20396;-80
2023/11/03 04:38:17;;;;;;;3.67;3.22;;;;;;;;;;5040066;28;20395;-80
2023/11/03 04:40:43;;;;;;;3.10;2.60;;;;;;;;;;5041095;28;20399;-80
2023/11/03 04:43:09;;;;;;;3.40;2.70;;;;;;;;;;5040438;28;20490;-80
2023/11/03 04:45:35;;;;;;;2.90;2.60;;;;;;;;;;5041698;28;20529;-80
2023/11/03 04:48:01;;;;;;;3.70;2.85;;;;;;;;;;5041273;28;20845;-80
2023/11/03 04:50:27;;;;;;;3.85;2.60;;;;;;;;;;5041545;28;20399;-80
2023/11/03 04:52:53;;;;;;;3.40;2.90;;;;;;;;;;5041380;28;20410;-80
2023/11/03 04:55:20;;;;;;;3.28;2.50;;;;;;;;;;5041387;28;20391;-80
2023/11/03 04:57:46;;;;;;;2.85;2.20;;;;;;;;;;5041780;28;20425;-80
2023/11/03 05:00:12;;;;;;;3.20;2.40;;;;;;;;;;5041902;28;20437;-80
2023/11/03 05:02:38;;;;;;;3.30;2.20;;;;;;;;;;5042510;28;20426;-80
2023/11/03 05:05:04;;;;;;;2.60;2.20;;;;;;;;;;5042278;28;20387;-80
2023/11/03 05:07:34;;;;;;;3.03;2.20;;;;;;;;;;5042842;28;20437;-80
2023/11/03 05:10:00;;;;;;;2.90;2.07;;;;;;;;;;5042797;28;20398;-80
2023/11/03 05:12:26;;;;;;;2.63;2.15;;;;;;;;;;5039974;28;20411;-80
2023/11/03 05:14:52;;;;;;;3.78;2.08;;;;;;;;;;5042166;28;20403;-80
2023/11/03 05:17:21;;;;;;;2.45;1.65;;;;;;;;;;5030010;28;20457;-80
2023/11/03 05:19:48;;;;;;;2.15;1.75;;;;;;;;;;5041114;28;20387;-80
2023/11/03 05:22:15;;;;;;;4.18;1.92;;;;;;;;;;5041548;28;20403;-80
2023/11/03 05:24:43;;;;;;;3.90;1.90;;;;;;;;;;5041107;28;20872;-80
2023/11/03 05:27:09;;;;;;;2.72;1.90;;;;;;;;;;5041053;28;20387;-80
2023/11/03 05:29:35;;;;;;;2.50;1.70;;;;;;;;;;5041197;28;20418;-80
2023/11/03 05:32:02;;;;;;;1.80;1.45;;;;;;;;;;5040115;28;20387;-80
2023/11/03 05:34:28;;;;;;;3.10;1.93;;;;;;;;;;5042120;28;20392;-80
2023/11/03 05:36:54;;;;;;;2.53;1.73;;;;;;;;;;5042227;28;20772;-80
2023/11/03 05:39:20;;;;;;;2.15;1.60;;;;;;;;;;5039738;28;20387;-80
2023/11/03 05:41:46;;;;;;;2.65;2.30;;;;;;;;;;5042538;28;20432;-80
2023/11/03 05:44:12;;;;;;;3.05;2.10;;;;;;;;;;5042470;28;20395;-80
2023/11/03 05:46:38;;;;;;;2.07;1.87;;;;;;;;;;5021418;28;20454;-80
2023/11/03 05:49:04;;;;;;;2.57;1.73;;;;;;;;;;5042301;28;20754;-80
2023/11/03 05:51:31;;;;;;;3.05;1.75;;;;;;;;;;5042251;28;20483;-80
2023/11/03 05:53:57;;;;;;;2.85;1.60;;;;;;;;;;5041818;28;20391;-80
2023/11/03 05:56:23;;;;;;;2.50;1.60;;;;;;;;;;5043480;28;20402;-80
2023/11/03 05:58:51;;;;;;;2.22;1.23;;;;;;;;;;5045091;28;20413;-80
2023/11/03 06:01:18;;;;;;;3.13;1.52;;;;;;;;;;5045358;28;20422;-80
2023/11/03 06:03:45;;;;;;;2.35;1.40;;;;;;;;;;5045682;28;20394;-80
2023/11/03 06:06:11;;;;;;;2.10;1.20;;;;;;;;;;5045589;28;20394;-80
2023/11/03 06:08:37;;;;;;;1.85;1.13;;;;;;;;;;5045200;28;20415;-80
2023/11/03 06:11:03;;;;;;;2.13;1.70;;;;;;;;;;5046044;28;20395;-80
2023/11/03 06:13:29;;;;;;;1.75;1.40;;;;;;;;;;5045564;28;20391;-80
2023/11/03 06:15:56;;;;;;;3.43;1.20;;;;;;;;;;5045971;28;20494;-80
2023/11/03 06:18:22;;;;;;;2.20;1.10;;;;;;;;;;5042782;28;20392;-80
2023/11/03 06:20:48;;;;;;;2.17;1.10;;;;;;;;;;5043971;28;20387;-80
2023/11/03 06:23:14;;;;;;;1.50;1.00;;;;;;;;;;5039984;28;20399;-80
2023/11/03 06:25:40;;;;;;;2.03;1.10;;;;;;;;;;5042022;28;20399;-80
2023/11/03 06:28:07;;;;;;;1.83;1.13;;;;;;;;;;5045721;28;20761;-80
2023/11/03 06:30:33;;;;;;;2.88;1.20;;;;;;;;;;5044810;28;20417;-80
2023/11/03 06:32:59;;;;;;;1.95;1.10;;;;;;;;;;5044636;28;20387;-80
2023/11/03 06:35:25;;;;;;;3.08;1.30;;;;;;;;;;5044690;28;20386;-80
2023/11/03 06:37:51;;;;;;;1.17;0.98;;;;;;;;;;5044920;28;20387;-80
2023/11/03 06:40:17;;;;;;;2.40;1.05;;;;;;;;;;5045518;28;20466;-80
2023/11/03 06:42:43;;;;;;;3.80;1.10;;;;;;;;;;5042613;28;20769;-80
2023/11/03 06:45:10;;;;;;;1.67;1.00;;;;;;;;;;5045447;28;20414;-80
2023/11/03 06:47:36;;;;;;;3.97;1.27;;;;;;;;;;5044804;28;20379;-80
2023/11/03 06:50:03;;;;;;;3.58;1.20;;;;;;;;;;5044736;28;20403;-80
2023/11/03 06:52:29;;;;;;;2.85;1.15;;;;;;;;;;5044523;28;20394;-80
2023/11/03 06:54:55;;;;;;;3.42;1.60;;;;;;;;;;5045132;28;20894;-80
2023/11/03 06:57:22;;;;;;;4.00;1.85;;;;;;;;;;5045092;28;20387;-80
2023/11/03 06:59:48;;;;;;;3.47;2.10;;;;;;;;;;5044425;28;20384;-80
2023/11/03 07:02:14;;;;;;;3.20;1.70;;;;;;;;;;5044824;28;20383;-80
2023/11/03 07:04:41;;;;;;;2.88;1.58;;;;;;;;;;5045679;28;20383;-80
2023/11/03 07:07:07;;;;;;;3.45;1.70;;;;;;;;;;5044469;28;20383;-80
2023/11/03 07:09:33;;;;;;;3.95;1.90;;;;;;;;;;5044206;28;20807;-81
2023/11/03 07:12:00;;;;;;;3.97;1.85;;;;;;;;;;5045568;28;20445;-81
2023/11/03 07:14:27;;;;;;;3.00;2.03;;;;;;;;;;5049185;28;20502;-82
2023/11/03 07:16:53;;;;;;;3.78;2.10;;;;;;;;;;5046182;28;20383;-80
2023/11/03 07:19:19;;;;;;;4.30;2.20;;;;;;;;;;5047642;28;20471;-80
2023/11/03 07:21:49;;;;;;;4.65;2.08;;;;;;;;;;5039191;28;20448;-80
2023/11/03 07:24:16;;;;;;;4.15;2.15;;;;;;;;;;5045367;28;20379;-79
2023/11/03 07:26:43;;;;;;;5.05;2.30;;;;;;;;;;5046364;28;20982;-80
2023/11/03 07:29:09;;;;;;;4.07;2.40;;;;;;;;;;5048036;28;20475;-81
2023/11/03 07:31:35;;;;;;;4.50;2.30;;;;;;;;;;5029016;28;20395;-80
2023/11/03 07:34:03;;;;;;;3.78;2.00;;;;;;;;;;5045312;28;20425;-80
2023/11/03 07:36:29;;;;;;;3.05;2.05;;;;;;;;;;5045600;28;20388;-79
2023/11/03 07:38:55;;;;;;;4.60;2.35;;;;;;;;;;5044645;28;20863;-79
2023/11/03 07:41:22;;;;;;;5.03;2.30;;;;;;;;;;5045845;28;20391;-79
2023/11/03 07:43:48;;;;;;;3.30;2.10;;;;;;;;;;5043090;28;20859;-80
2023/11/03 07:46:14;;;;;;;4.22;2.22;;;;;;;;;;5045046;28;20423;-80
2023/11/03 07:48:40;;;;;;;3.88;2.40;;;;;;;;;;5044675;28;20876;-80
2023/11/03 07:51:06;;;;;;;5.10;2.50;;;;;;;;;;5042560;28;20385;-80
2023/11/03 07:53:32;;;;;;;3.85;2.42;;;;;;;;;;5045300;28;20399;-80
2023/11/03 07:55:58;;;;;;;4.38;2.33;;;;;;;;;;5044950;28;20407;-80
2023/11/03 07:58:25;;;;;;;5.07;2.43;;;;;;;;;;5043250;28;20391;-80
2023/11/03 08:00:51;;;;;;;5.20;2.25;;;;;;;;;;5026706;28;20806;-80
2023/11/03 08:03:17;;;;;;;5.50;2.67;;;;;;;;;;5042735;28;20849;-79
2023/11/03 08:05:44;;;;;;;3.03;1.90;;;;;;;;;;5042808;28;20391;-79
2023/11/03 08:08:10;;;;;;;5.03;1.70;;;;;;;;;;5044060;28;20417;-80
2023/11/03 08:10:36;;;;;;;4.97;2.10;;;;;;;;;;5043211;28;20396;-80
2023/11/03 08:13:04;;;;;;;4.45;2.03;;;;;;;;;;5040038;28;21331;-80
2023/11/03 08:15:30;;;;;;;2.90;1.80;;;;;;;;;;5040783;28;20383;-79
2023/11/03 08:17:56;;;;;;;4.93;1.90;;;;;;;;;;5036887;28;20389;-81
2023/11/03 08:20:22;;;;;;;3.00;1.63;;;;;;;;;;5022083;28;20455;-81
2023/11/03 08:22:49;;;;;;;3.92;1.60;;;;;;;;;;5019646;28;20442;-81
2023/11/03 08:25:15;;;;;;;4.70;1.52;;;;;;;;;;5037217;28;20511;-81
2023/11/03 08:27:41;;;;;;;2.15;1.80;;;;;;;;;;5034876;28;20414;-81
2023/11/03 08:30:10;;;;;;;5.35;2.28;;;;;;;;;;5037560;28;21116;-81
2023/11/03 08:32:37;;;;;;;4.68;2.25;;;;;;;;;;5030067;28;20381;-81
2023/11/03 08:35:06;;;;;;;3.17;1.90;;;;;;;;;;5035637;28;20444;-81
2023/11/03 08:37:32;;;;;;;4.40;1.60;;;;;;;;;;5039633;28;21169;-80
2023/11/03 08:40:03;;;;;;;3.40;2.22;;;;;;;;;;5040403;28;20772;-80
2023/11/03 08:42:29;;;;;;;3.63;2.33;;;;;;;;;;5043479;28;20490;-81
2023/11/03 08:44:55;;;;;;;4.00;2.30;;;;;;;;;;5041166;28;20825;-80
2023/11/03 08:47:21;;;;;;;5.35;2.40;;;;;;;;;;5042208;28;20415;-80
2023/11/03 08:49:47;;;;;;;6.18;2.25;;;;;;;;;;5047085;28;21054;-81
2023/11/03 08:52:13;;;;;;;4.30;2.00;;;;;;;;;;5044391;28;20419;-81
2023/11/03 08:54:39;;;;;;;3.97;2.10;;;;;;;;;;5043819;28;20398;-81
2023/11/03 08:57:06;;;;;;;4.00;1.83;;;;;;;;;;5047344;28;20841;-81
2023/11/03 08:59:32;;;;;;;4.10;2.30;;;;;;;;;;5048432;28;20450;-81
2023/11/03 09:01:58;;;;;;;4.47;1.80;;;;;;;;;;5044403;28;20387;-81
2023/11/03 09:04:24;;;;;;;3.03;1.50;;;;;;;;;;5038253;28;20384;-80
2023/11/03 09:06:51;;;;;;;5.22;2.00;;;;;;;;;;5033219;28;20512;-80
2023/11/03 09:09:18;;;;;;;3.92;1.65;;;;;;;;;;5036233;28;20500;-81
2023/11/03 09:11:46;;;;;;;3.95;1.23;;;;;;;;;;5030770;28;20436;-80
2023/11/03 09:14:13;;;;;;;1.93;1.10;;;;;;;;;;5033889;28;20383;-81
2023/11/03 09:16:39;;;;;;;3.23;1.30;;;;;;;;;;5042416;28;20391;-82
2023/11/03 09:19:06;;;;;;;3.22;1.55;;;;;;;;;;5035934;28;20470;-80
2023/11/03 09:21:33;;;;;;;4.15;1.30;;;;;;;;;;5035953;28;20860;-80
2023/11/03 09:24:00;;;;;;;3.65;1.02;;;;;;;;;;5040126;28;20402;-82
2023/11/03 09:26:26;;;;;;;3.95;1.40;;;;;;;;;;5039733;28;20387;-80
2023/11/03 09:28:52;;;;;;;4.20;1.35;;;;;;;;;;5040306;28;20821;-80
2023/11/03 09:31:18;;;;;;;2.97;1.13;;;;;;;;;;5040816;28;20444;-80
2023/11/03 09:33:45;;;;;;;5.28;1.60;;;;;;;;;;5035960;28;20393;-80
2023/11/03 09:36:11;;;;;;;5.25;1.38;;;;;;;;;;5034127;28;20383;-80
2023/11/03 09:38:38;;;;;;;2.90;1.23;;;;;;;;;;5040829;28;20394;-80
2023/11/03 09:41:08;;;;;;;4.17;1.30;;;;;;;;;;5040764;28;20406;-80
2023/11/03 09:43:34;;;;;;;2.67;1.13;;;;;;;;;;5026637;28;20385;-80
2023/11/03 09:46:00;;;;;;;2.47;1.10;;;;;;;;;;5039970;28;20833;-80
2023/11/03 09:48:29;;;;;;;2.70;1.00;;;;;;;;;;5035925;28;20436;-80
2023/11/03 09:50:55;;;;;;;5.50;1.20;;;;;;;;;;5032438;28;20864;-80
2023/11/03 09:53:22;;;;;;;4.38;1.20;;;;;;;;;;5035548;28;20395;-80
2023/11/03 09:55:49;;;;;;;1.87;0.90;;;;;;;;;;5041354;28;20398;-80
2023/11/03 09:58:15;;;;;;;3.00;0.88;;;;;;;;;;5039555;28;20390;-80
2023/11/03 10:00:42;;;;;;;2.88;1.10;;;;;;;;;;5040080;28;20415;-80
2023/11/03 10:03:10;;;;;;;4.32;1.10;;;;;;;;;;5039605;28;20394;-80
2023/11/03 10:05:37;;;;;;;4.22;1.15;;;;;;;;;;5037382;28;20393;-80
2023/11/03 10:08:07;;;;;;;2.95;1.10;;;;;;;;;;5039369;28;20437;-80
2023/11/03 10:10:34;;;;;;;3.50;1.23;;;;;;;;;;5039715;28;20386;-80
2023/11/03 10:13:00;;;;;;;2.35;0.93;;;;;;;;;;5039392;28;20379;-80
2023/11/03 10:15:26;;;;;;;2.47;0.80;;;;;;;;;;5039459;28;20393;-80
2023/11/03 10:17:53;;;;;;;2.67;1.10;;;;;;;;;;5039763;28;20489;-80
2023/11/03 10:20:20;;;;;;;3.00;1.17;;;;;;;;;;5039464;28;20386;-80
2023/11/03 10:22:47;;;;;;;2.27;0.80;;;;;;;;;;5038524;28;20385;-80
2023/11/03 10:25:14;;;;;;;2.90;1.10;;;;;;;;;;5033185;28;20445;-80
2023/11/03 10:27:40;;;;;;;3.72;1.23;;;;;;;;;;5039406;28;20400;-80
2023/11/03 10:30:06;;;;;;;2.72;1.05;;;;;;;;;;5040237;28;20387;-80
2023/11/03 10:32:33;;;;;;;2.50;0.70;;;;;;;;;;5040678;28;20437;-80
2023/11/03 10:35:05;;;;;;;2.33;1.00;;;;;;;;;;5039312;28;20391;-80
2023/11/03 10:37:32;;;;;;;2.70;0.90;;;;;;;;;;5039721;28;20462;-80
2023/11/03 10:39:58;;;;;;;2.35;0.70;;;;;;;;;;5040169;28;20391;-80
2023/11/03 10:42:24;;;;;;;2.47;0.80;;;;;;;;;;5041385;28;20391;-80
2023/11/03 10:44:55;;;;;;;1.42;0.80;;;;;;;;;;5042293;28;20379;-80
2023/11/03 10:47:26;;;;;;;3.50;0.90;;;;;;;;;;5044171;28;20458;-80
2023/11/03 10:49:55;;;;;;;1.75;0.57;;;;;;;;;;5041927;28;20970;-80
2023/11/03 10:52:28;;;;;;;2.70;0.80;;;;;;;;;;5042217;28;20399;-80
2023/11/03 10:55:06;;;;;;;1.50;0.85;;;;;;;;;;5042549;28;20387;-80
2023/11/03 10:57:33;;;;;;;1.20;0.77;;;;;;;;;;5040465;28;20389;-80
2023/11/03 11:00:12;;;;;;;2.08;0.90;;;;;;;;;;5040245;28;20389;-81
2023/11/03 11:02:49;;;;;;;2.40;0.70;;;;;;;;;;5038654;28;20785;-81
2023/11/03 11:05:34;;;;;;;2.05;0.70;;;;;;;;;;5037587;28;20799;-80
2023/11/03 11:08:03;;;;;;;2.42;0.60;;;;;;;;;;5039500;28;20446;-80
2023/11/03 11:10:36;;;;;;;2.45;0.90;;;;;;;;;;5039412;28;20475;-80
2023/11/03 11:13:04;;;;;;;2.28;0.70;;;;;;;;;;5039521;28;20395;-80
2023/11/03 11:15:30;;;;;;;1.25;0.68;;;;;;;;;;5039185;28;20852;-80
2023/11/03 11:18:03;;;;;;;2.37;0.70;;;;;;;;;;5038789;28;20490;-80
2023/11/03 11:20:32;;;;;;;1.85;0.60;;;;;;;;;;5021966;28;20845;-80
2023/11/03 11:22:59;;;;;;;2.17;0.60;;;;;;;;;;5039774;28;20387;-80
2023/11/03 11:25:28;;;;;;;3.00;0.90;;;;;;;;;;5038923;28;20375;-80
2023/11/03 11:27:54;;;;;;;1.85;0.73;;;;;;;;;;5038861;28;20506;-80
2023/11/03 11:30:20;;;;;;;2.13;0.80;;;;;;;;;;5039730;28;20402;-80
2023/11/03 11:32:53;;;;;;;1.92;0.88;;;;;;;;;;5021759;28;20768;-80
2023/11/03 11:35:20;;;;;;;3.00;0.95;;;;;;;;;;5040450;28;20432;-80
2023/11/03 11:37:47;;;;;;;1.60;0.80;;;;;;;;;;5040057;28;20375;-80
2023/11/03 11:40:13;;;;;;;2.70;1.10;;;;;;;;;;5038317;28;20549;-80
2023/11/03 11:42:43;;;;;;;2.65;1.02;;;;;;;;;;5040573;28;20850;-80
2023/11/03 11:45:12;;;;;;;2.53;1.07;;;;;;;;;;5038849;28;20414;-80
2023/11/03 11:47:44;;;;;;;2.58;1.00;;;;;;;;;;5038303;28;20387;-80
2023/11/03 11:50:11;;;;;;;2.92;0.95;;;;;;;;;;5040299;28;20391;-80
2023/11/03 11:52:39;;;;;;;3.28;0.80;;;;;;;;;;5040641;28;20398;-80
2023/11/03 11:55:07;;;;;;;2.40;0.70;;;;;;;;;;5037099;28;20465;-80
2023/11/03 11:57:36;;;;;;;1.60;0.80;;;;;;;;;;5041706;28;20371;-80
2023/11/03 12:00:04;;;;;;;2.22;0.73;;;;;;;;;;5040647;28;20882;-81
2023/11/03 12:02:33;;;;;;;2.88;0.85;;;;;;;;;;5041153;28;20397;-82
2023/11/03 12:04:59;;;;;;;1.80;0.80;;;;;;;;;;5042387;28;20372;-81
2023/11/03 12:07:29;;;;;;;2.67;0.90;;;;;;;;;;5041361;28;20415;-81
2023/11/03 12:09:55;;;;;;;3.97;0.90;;;;;;;;;;5041996;28;20411;-81
2023/11/03 12:12:21;;;;;;;2.60;0.60;;;;;;;;;;5041709;28;20395;-81
2023/11/03 12:14:47;;;;;;;2.72;0.90;;;;;;;;;;5040504;28;20390;-81
2023/11/03 12:17:14;;;;;;;2.25;0.50;;;;;;;;;;5042755;28;20387;-81
2023/11/03 12:19:44;;;;;;;2.33;0.73;;;;;;;;;;5042105;28;20375;-81
2023/11/03 12:22:19;;;;;;;2.15;0.82;;;;;;;;;;5042329;28;20395;-81
2023/11/03 12:24:45;;;;;;;4.00;0.80;;;;;;;;;;5042807;28;20371;-81
2023/11/03 12:27:11;;;;;;;1.88;0.70;;;;;;;;;;5042892;28;20379;-81
2023/11/03 12:29:39;;;;;;;2.80;1.00;;;;;;;;;;5042675;28;20418;-81
2023/11/03 12:32:05;;;;;;;2.13;0.98;;;;;;;;;;5041610;28;20890;-81
2023/11/03 12:34:32;;;;;;;3.40;1.67;;;;;;;;;;5041489;28;20451;-81
2023/11/03 12:36:58;;;;;;;3.45;1.90;;;;;;;;;;5041788;28;20462;-81
2023/11/03 12:39:25;;;;;;;4.13;1.45;;;;;;;;;;5042073;28;20383;-81
2023/11/03 12:42:06;;;;;;;1.80;0.90;;;;;;;;;;5041358;28;20437;-81
2023/11/03 12:44:48;;;;;;;2.17;0.82;;;;;;;;;;5041156;28;20379;-81
2023/11/03 12:47:14;;;;;;;3.10;1.20;;;;;;;;;;5042167;28;20395;-82
2023/11/03 12:49:40;;;;;;;3.00;1.10;;;;;;;;;;5036694;28;20760;-81
2023/11/03 12:52:18;;;;;;;2.40;0.90;;;;;;;;;;5042706;28;20394;-81
2023/11/03 12:54:54;;;;;;;3.30;1.20;;;;;;;;;;5040870;28;21526;-81
2023/11/03 12:57:33;;;;;;;2.20;1.02;;;;;;;;;;5037153;28;20388;-81
2023/11/03 13:00:00;;;;;;;2.58;0.85;;;;;;;;;;5042046;28;20407;-81
2023/11/03 13:02:26;;;;;;;2.65;0.90;;;;;;;;;;5038028;28;20385;-81
2023/11/03 13:04:52;;;;;;;3.20;1.25;;;;;;;;;;5036095;28;20379;-81
2023/11/03 13:07:18;;;;;;;1.48;0.85;;;;;;;;;;5041990;28;20391;-81
2023/11/03 13:09:44;;;;;;;1.83;0.70;;;;;;;;;;5039721;28;20426;-80
2023/11/03 13:12:12;;;;;;;2.33;0.90;;;;;;;;;;5034185;28;20753;-81
2023/11/03 13:14:40;;;;;;;3.38;1.20;;;;;;;;;;5038149;28;20383;-80
2023/11/03 13:17:06;;;;;;;4.00;0.85;;;;;;;;;;5029258;28;20377;-80
2023/11/03 13:19:36;;;;;;;2.05;0.85;;;;;;;;;;5035512;28;20461;-81
2023/11/03 13:22:05;;;;;;;2.85;0.90;;;;;;;;;;5039114;28;20903;-80
2023/11/03 13:24:31;;;;;;;1.60;0.88;;;;;;;;;;5039098;28;20401;-80
2023/11/03 13:26:57;;;;;;;2.37;0.90;;;;;;;;;;5021465;28;20511;-80
2023/11/03 13:29:23;;;;;;;5.70;1.00;;;;;;;;;;5039377;28;20489;-81
2023/11/03 13:31:49;;;;;;;3.40;1.25;;;;;;;;;;5040055;28;20423;-80
2023/11/03 13:34:15;;;;;;;2.30;1.00;;;;;;;;;;5021830;28;20873;-80
2023/11/03 13:36:41;;;;;;;1.52;0.93;;;;;;;;;;5039783;28;20403;-80
2023/11/03 13:39:08;;;;;;;2.30;1.00;;;;;;;;;;5041204;28;20414;-80
2023/11/03 13:41:34;;;;;;;2.38;1.45;;;;;;;;;;5039981;28;20833;-81
2023/11/03 13:44:00;;;;;;;6.32;4.55;;;;;;;;;;5040614;28;20437;-80
2023/11/03 13:46:26;;;;;;;3.70;1.80;;;;;;;;;;5040053;28;20411;-81
2023/11/03 13:48:54;;;;;;;2.22;1.30;;;;;;;;;;5041022;28;20454;-81
2023/11/03 13:51:20;;;;;;;1.97;0.90;;;;;;;;;;5039657;28;20391;-81
2023/11/03 13:53:46;;;;;;;2.80;1.00;;;;;;;;;;5041575;28;20473;-81
2023/11/03 13:56:12;;;;;;;3.22;1.00;;;;;;;;;;5041156;28;20437;-81
2023/11/03 13:58:38;;;;;;;1.90;1.00;;;;;;;;;;5041009;28;20387;-81
2023/11/03 14:01:06;;;;;;;1.60;0.80;;;;;;;;;;5040471;28;20471;-81
2023/11/03 14:03:34;;;;;;;3.25;1.02;;;;;;;;;;5040774;28;20383;-80
2023/11/03 14:06:08;;;;;;;3.85;1.10;;;;;;;;;;5037597;28;20382;-81
2023/11/03 14:08:34;;;;;;;2.88;1.13;;;;;;;;;;5034357;28;20853;-81
2023/11/03 14:11:04;;;;;;;2.17;0.80;;;;;;;;;;5031286;28;20394;-81
2023/11/03 14:13:34;;;;;;;3.85;1.23;;;;;;;;;;5027856;28;20455;-81
2023/11/03 14:16:00;;;;;;;4.35;1.40;;;;;;;;;;5033628;28;20387;-81
2023/11/03 14:18:27;;;;;;;4.75;1.40;;;;;;;;;;5037204;28;20409;-81
2023/11/03 14:20:57;;;;;;;2.67;0.90;;;;;;;;;;5037652;28;20714;-81
2023/11/03 14:23:25;;;;;;;2.28;0.80;;;;;;;;;;5031930;28;20396;-81
2023/11/03 14:25:51;;;;;;;1.52;0.90;;;;;;;;;;5036537;28;20891;-81
2023/11/03 14:28:17;;;;;;;1.70;0.95;;;;;;;;;;5039033;28;20407;-81
2023/11/03 14:30:46;;;;;;;1.98;0.90;;;;;;;;;;5037841;28;20399;-81
2023/11/03 14:33:12;;;;;;;2.28;0.75;;;;;;;;;;5039012;28;20401;-81
2023/11/03 14:35:38;;;;;;;3.00;1.00;;;;;;;;;;5038996;28;20387;-81
2023/11/03 14:38:05;;;;;;;2.00;1.00;;;;;;;;;;5039217;28;20414;-82
2023/11/03 14:40:31;;;;;;;3.97;1.00;;;;;;;;;;5039732;28;20387;-82
2023/11/03 14:42:58;;;;;;;3.80;1.33;;;;;;;;;;5039585;28;20387;-81